Jolly Acres, South Dakota
Current Conditions -  °F | °C
As of 2:52 AM on Sunday 26 Oct 2014 (Local Time) from KRAP Reporting Station
Clear Clear  
Wind Chill: 52°   Ceiling: Unl
Heat Index: 52°   Visibility: 10mi
Dew Point: 38°   Wind: 9mph
Humidity: 59%   Direction: 130°SE
Pressure: 29.7"   Gusts: NA
Location:  44.0731°N, 103.205°W
Report Text: KRAP 260852Z 13008KT 10SM CLR 11/03 A2970 RMK AO2 SLP045 T01110033 56033
Loading
Personal Weather Stations






























Interactive Weather Map New forecast layout! Learn more

10-Day Weather Forecast

Advertisements
Track Severe Weather on mobile